MKU769 PHOG-PHTO
Flight info
| Callsign | MKU769 |
|---|---|
| Flight time | 0h 36m |
| Altitude | 11000 |
| Route | ONOHI2 BARBY PARIS V15 ITO |
| Aircraft | DH8D/M-SDE2E3FGRY/H |
Departure
| Time | 2026-04-22 00:33 |
|---|---|
| Airport | Kahului International Airport (PHOG) |
Arrival
| Time | 2026-04-22 01:10 |
|---|---|
| Airport | Hilo International Airport (PHTO) |
| Time | Latitude | Longitude | Altitude | Speed | Heading |
|---|---|---|---|---|---|
| 2026-04-21 23:39 | 20.89403 | -156.43597 | 65 ft | 0 kts | 305° |
| 2026-04-22 00:15 | 20.89403 | -156.43599 | 65 ft | 0 kts | 305° |
| 2026-04-22 00:15 | 20.89402 | -156.43597 | 65 ft | 1 kts | 307° |
| 2026-04-22 00:15 | 20.89393 | -156.43585 | 65 ft | 2 kts | 306° |
| 2026-04-22 00:16 | 20.89384 | -156.43573 | 66 ft | 2 kts | 306° |
| 2026-04-22 00:16 | 20.89375 | -156.43559 | 66 ft | 2 kts | 306° |
| 2026-04-22 00:16 | 20.89374 | -156.43558 | 66 ft | 0 kts | 306° |
| 2026-04-22 00:21 | 20.89368 | -156.43565 | 66 ft | 2 kts | 177° |
| 2026-04-22 00:21 | 20.89357 | -156.43553 | 66 ft | 0 kts | 126° |
| 2026-04-22 00:22 | 20.89356 | -156.43553 | 66 ft | 0 kts | 126° |
| 2026-04-22 00:22 | 20.89356 | -156.43552 | 66 ft | 0 kts | 126° |
| 2026-04-22 00:22 | 20.89342 | -156.43533 | 66 ft | 5 kts | 126° |
| 2026-04-22 00:22 | 20.89309 | -156.43506 | 66 ft | 6 kts | 179° |
| 2026-04-22 00:23 | 20.89268 | -156.43529 | 66 ft | 7 kts | 216° |
| 2026-04-22 00:23 | 20.89224 | -156.43564 | 66 ft | 8 kts | 214° |
| 2026-04-22 00:23 | 20.89175 | -156.43600 | 66 ft | 8 kts | 215° |
| 2026-04-22 00:23 | 20.89122 | -156.43640 | 66 ft | 9 kts | 214° |
| 2026-04-22 00:24 | 20.89068 | -156.43680 | 66 ft | 8 kts | 214° |
| 2026-04-22 00:24 | 20.89024 | -156.43712 | 66 ft | 5 kts | 214° |
| 2026-04-22 00:24 | 20.88990 | -156.43710 | 66 ft | 5 kts | 134° |
| 2026-04-22 00:24 | 20.88984 | -156.43701 | 66 ft | 0 kts | 122° |
| 2026-04-22 00:32 | 20.88968 | -156.43675 | 66 ft | 5 kts | 122° |
| 2026-04-22 00:32 | 20.88945 | -156.43636 | 66 ft | 6 kts | 112° |
| 2026-04-22 00:32 | 20.88964 | -156.43597 | 67 ft | 9 kts | 40° |
| 2026-04-22 00:32 | 20.89174 | -156.43442 | 67 ft | 81 kts | 32° |
| 2026-04-22 00:33 | 20.89844 | -156.42932 | 154 ft | 139 kts | 36° |
| 2026-04-22 00:33 | 20.90659 | -156.42294 | 640 ft | 157 kts | 36° |
| 2026-04-22 00:33 | 20.91594 | -156.41559 | 1179 ft | 176 kts | 36° |
| 2026-04-22 00:33 | 20.92609 | -156.40811 | 1911 ft | 182 kts | 34° |
| 2026-04-22 00:34 | 20.93648 | -156.40033 | 2670 ft | 187 kts | 41° |
| 2026-04-22 00:34 | 20.94191 | -156.38803 | 3334 ft | 192 kts | 91° |
| 2026-04-22 00:34 | 20.93715 | -156.37527 | 4008 ft | 196 kts | 122° |
| 2026-04-22 00:34 | 20.92932 | -156.36339 | 4774 ft | 198 kts | 124° |
| 2026-04-22 00:35 | 20.92126 | -156.35143 | 5534 ft | 200 kts | 124° |
| 2026-04-22 00:35 | 20.91320 | -156.33955 | 6197 ft | 202 kts | 125° |
| 2026-04-22 00:35 | 20.90498 | -156.32739 | 6763 ft | 206 kts | 125° |
| 2026-04-22 00:35 | 20.89675 | -156.31514 | 7358 ft | 208 kts | 124° |
| 2026-04-22 00:36 | 20.89123 | -156.30074 | 7896 ft | 210 kts | 98° |
| 2026-04-22 00:36 | 20.88975 | -156.28542 | 8451 ft | 212 kts | 94° |
| 2026-04-22 00:36 | 20.88842 | -156.26987 | 8988 ft | 214 kts | 94° |
| 2026-04-22 00:36 | 20.88702 | -156.25392 | 9527 ft | 216 kts | 94° |
| 2026-04-22 00:37 | 20.88560 | -156.23808 | 10005 ft | 218 kts | 94° |
| 2026-04-22 00:37 | 20.88410 | -156.22180 | 10459 ft | 222 kts | 95° |
| 2026-04-22 00:37 | 20.88257 | -156.20522 | 10826 ft | 231 kts | 94° |
| 2026-04-22 00:37 | 20.88093 | -156.18764 | 10971 ft | 247 kts | 94° |
| 2026-04-22 00:38 | 20.87916 | -156.16876 | 11029 ft | 266 kts | 94° |
| 2026-04-22 00:38 | 20.87724 | -156.14856 | 11043 ft | 280 kts | 95° |
| 2026-04-22 00:38 | 20.87520 | -156.12724 | 11036 ft | 294 kts | 95° |
| 2026-04-22 00:38 | 20.87307 | -156.10518 | 11023 ft | 304 kts | 95° |
| 2026-04-22 00:39 | 20.87086 | -156.08258 | 11016 ft | 312 kts | 94° |
| 2026-04-22 00:39 | 20.86857 | -156.05893 | 11012 ft | 320 kts | 95° |
| 2026-04-22 00:39 | 20.86629 | -156.03564 | 10992 ft | 322 kts | 95° |
| 2026-04-22 00:39 | 20.86393 | -156.01157 | 10983 ft | 326 kts | 95° |
| 2026-04-22 00:40 | 20.86038 | -155.98752 | 10945 ft | 326 kts | 105° |
| 2026-04-22 00:40 | 20.84925 | -155.96770 | 10975 ft | 311 kts | 131° |
| 2026-04-22 00:40 | 20.83450 | -155.95094 | 10970 ft | 303 kts | 134° |
| 2026-04-22 00:40 | 20.82017 | -155.93506 | 10959 ft | 294 kts | 134° |
| 2026-04-22 00:41 | 20.80598 | -155.91945 | 10964 ft | 289 kts | 134° |
| 2026-04-22 00:41 | 20.79213 | -155.90419 | 10966 ft | 284 kts | 134° |
| 2026-04-22 00:41 | 20.77854 | -155.88924 | 10968 ft | 279 kts | 134° |
| 2026-04-22 00:41 | 20.76509 | -155.87447 | 10968 ft | 278 kts | 134° |
| 2026-04-22 00:42 | 20.75158 | -155.85960 | 10967 ft | 275 kts | 134° |
| 2026-04-22 00:42 | 20.73839 | -155.84511 | 10965 ft | 272 kts | 134° |
| 2026-04-22 00:42 | 20.72529 | -155.83070 | 10965 ft | 272 kts | 134° |
| 2026-04-22 00:42 | 20.71222 | -155.81636 | 10961 ft | 268 kts | 134° |
| 2026-04-22 00:43 | 20.69916 | -155.80200 | 10963 ft | 268 kts | 134° |
| 2026-04-22 00:43 | 20.68618 | -155.78775 | 10963 ft | 267 kts | 134° |
| 2026-04-22 00:43 | 20.67345 | -155.77377 | 10963 ft | 265 kts | 134° |
| 2026-04-22 00:43 | 20.66052 | -155.75957 | 10963 ft | 265 kts | 134° |
| 2026-04-22 00:44 | 20.64781 | -155.74562 | 10959 ft | 263 kts | 134° |
| 2026-04-22 00:44 | 20.63504 | -155.73157 | 10959 ft | 262 kts | 134° |
| 2026-04-22 00:44 | 20.62222 | -155.71747 | 10963 ft | 262 kts | 134° |
| 2026-04-22 00:44 | 20.60975 | -155.70375 | 10963 ft | 261 kts | 134° |
| 2026-04-22 00:45 | 20.59693 | -155.68965 | 10962 ft | 262 kts | 134° |
| 2026-04-22 00:45 | 20.58415 | -155.67560 | 10961 ft | 262 kts | 134° |
| 2026-04-22 00:45 | 20.57158 | -155.66176 | 10967 ft | 265 kts | 134° |
| 2026-04-22 00:45 | 20.55831 | -155.64723 | 10971 ft | 279 kts | 134° |
| 2026-04-22 00:46 | 20.54458 | -155.63216 | 10971 ft | 283 kts | 134° |
| 2026-04-22 00:46 | 20.53071 | -155.61691 | 10971 ft | 289 kts | 134° |
| 2026-04-22 00:46 | 20.51687 | -155.60172 | 10966 ft | 292 kts | 134° |
| 2026-04-22 00:46 | 20.50262 | -155.58606 | 10964 ft | 293 kts | 134° |
| 2026-04-22 00:47 | 20.48838 | -155.57044 | 10964 ft | 297 kts | 134° |
| 2026-04-22 00:47 | 20.47382 | -155.55444 | 10965 ft | 299 kts | 134° |
| 2026-04-22 00:47 | 20.45929 | -155.53848 | 10964 ft | 301 kts | 134° |
| 2026-04-22 00:47 | 20.44456 | -155.52232 | 10965 ft | 303 kts | 134° |
| 2026-04-22 00:48 | 20.42997 | -155.50630 | 10961 ft | 300 kts | 134° |
| 2026-04-22 00:48 | 20.41545 | -155.49039 | 10965 ft | 303 kts | 134° |
| 2026-04-22 00:48 | 20.40071 | -155.47423 | 10965 ft | 304 kts | 134° |
| 2026-04-22 00:48 | 20.38606 | -155.45816 | 10965 ft | 304 kts | 134° |
| 2026-04-22 00:49 | 20.37125 | -155.44194 | 10964 ft | 306 kts | 134° |
| 2026-04-22 00:49 | 20.35640 | -155.42567 | 10963 ft | 307 kts | 134° |
| 2026-04-22 00:49 | 20.34131 | -155.40915 | 10977 ft | 319 kts | 134° |
| 2026-04-22 00:49 | 20.32549 | -155.39188 | 10975 ft | 329 kts | 134° |
| 2026-04-22 00:50 | 20.30979 | -155.37473 | 10960 ft | 324 kts | 134° |
| 2026-04-22 00:50 | 20.29395 | -155.35736 | 10963 ft | 324 kts | 134° |
| 2026-04-22 00:50 | 20.27861 | -155.34058 | 10964 ft | 323 kts | 134° |
| 2026-04-22 00:50 | 20.26283 | -155.32330 | 10964 ft | 321 kts | 134° |
| 2026-04-22 00:51 | 20.24707 | -155.30611 | 10973 ft | 331 kts | 135° |
| 2026-04-22 00:51 | 20.23096 | -155.28853 | 10964 ft | 332 kts | 134° |
| 2026-04-22 00:51 | 20.21479 | -155.27086 | 10872 ft | 332 kts | 135° |
| 2026-04-22 00:51 | 20.19843 | -155.25295 | 10044 ft | 339 kts | 134° |
| 2026-04-22 00:52 | 20.18252 | -155.23552 | 9440 ft | 323 kts | 134° |
| 2026-04-22 00:52 | 20.16729 | -155.21880 | 8958 ft | 309 kts | 134° |
| 2026-04-22 00:52 | 20.15280 | -155.20291 | 8516 ft | 294 kts | 134° |
| 2026-04-22 00:52 | 20.13896 | -155.18777 | 8105 ft | 281 kts | 134° |
| 2026-04-22 00:53 | 20.12563 | -155.17319 | 7713 ft | 271 kts | 134° |
| 2026-04-22 00:53 | 20.11279 | -155.15915 | 7334 ft | 259 kts | 134° |
| 2026-04-22 00:53 | 20.10047 | -155.14568 | 6973 ft | 251 kts | 133° |
| 2026-04-22 00:53 | 20.08837 | -155.13248 | 6616 ft | 241 kts | 134° |
| 2026-04-22 00:54 | 20.07703 | -155.12009 | 6282 ft | 231 kts | 134° |
| 2026-04-22 00:54 | 20.06602 | -155.10806 | 5963 ft | 225 kts | 134° |
| 2026-04-22 00:54 | 20.05473 | -155.09584 | 5648 ft | 240 kts | 134° |
| 2026-04-22 00:54 | 20.04281 | -155.08292 | 5301 ft | 250 kts | 134° |
| 2026-04-22 00:55 | 20.03058 | -155.06963 | 4936 ft | 250 kts | 133° |
| 2026-04-22 00:55 | 20.01863 | -155.05659 | 4565 ft | 240 kts | 133° |
| 2026-04-22 00:55 | 19.99556 | -155.03148 | 3903 ft | 240 kts | 132° |
| 2026-04-22 00:56 | 19.98469 | -155.01863 | 3896 ft | 223 kts | 129° |
| 2026-04-22 00:56 | 19.97470 | -155.00627 | 3933 ft | 221 kts | 129° |
| 2026-04-22 00:56 | 19.96483 | -154.99409 | 3954 ft | 224 kts | 129° |
| 2026-04-22 00:56 | 19.95440 | -154.98128 | 3966 ft | 231 kts | 130° |
| 2026-04-22 00:57 | 19.94379 | -154.96825 | 3975 ft | 237 kts | 129° |
| 2026-04-22 00:57 | 19.93294 | -154.95494 | 3976 ft | 242 kts | 130° |
| 2026-04-22 00:57 | 19.92172 | -154.94121 | 3973 ft | 247 kts | 130° |
| 2026-04-22 00:57 | 19.91048 | -154.92741 | 3962 ft | 243 kts | 130° |
| 2026-04-22 00:58 | 19.89946 | -154.91391 | 3960 ft | 242 kts | 129° |
| 2026-04-22 00:58 | 19.88837 | -154.90034 | 3983 ft | 240 kts | 130° |
| 2026-04-22 00:58 | 19.87765 | -154.88724 | 3845 ft | 242 kts | 130° |
| 2026-04-22 00:58 | 19.86645 | -154.87354 | 3604 ft | 251 kts | 129° |
| 2026-04-22 00:59 | 19.85480 | -154.85930 | 3349 ft | 254 kts | 129° |
| 2026-04-22 00:59 | 19.84303 | -154.84520 | 3091 ft | 255 kts | 133° |
| 2026-04-22 00:59 | 19.82778 | -154.83574 | 2844 ft | 256 kts | 165° |
| 2026-04-22 00:59 | 19.81083 | -154.83446 | 2605 ft | 239 kts | 178° |
| 2026-04-22 01:00 | 19.79456 | -154.83449 | 2338 ft | 226 kts | 178° |
| 2026-04-22 01:00 | 19.77911 | -154.83458 | 2082 ft | 214 kts | 178° |
| 2026-04-22 01:00 | 19.76486 | -154.83467 | 1824 ft | 200 kts | 177° |
| 2026-04-22 01:00 | 19.75057 | -154.83476 | 1588 ft | 213 kts | 178° |
| 2026-04-22 01:01 | 19.73541 | -154.83623 | 1355 ft | 220 kts | 195° |
| 2026-04-22 01:01 | 19.72384 | -154.84599 | 1083 ft | 214 kts | 239° |
| 2026-04-22 01:01 | 19.71987 | -154.86038 | 1336 ft | 205 kts | 258° |
| 2026-04-22 01:01 | 19.71734 | -154.87434 | 2230 ft | 171 kts | 257° |
| 2026-04-22 01:02 | 19.71520 | -154.88626 | 2709 ft | 171 kts | 259° |
| 2026-04-22 01:02 | 19.71301 | -154.89905 | 3361 ft | 180 kts | 258° |
| 2026-04-22 01:02 | 19.71051 | -154.91267 | 3697 ft | 210 kts | 258° |
| 2026-04-22 01:02 | 19.70815 | -154.92976 | 3600 ft | 251 kts | 269° |
| 2026-04-22 01:03 | 19.71144 | -154.94699 | 3392 ft | 230 kts | 290° |
| 2026-04-22 01:03 | 19.71625 | -154.96262 | 3180 ft | 213 kts | 284° |
| 2026-04-22 01:03 | 19.71997 | -154.97711 | 3006 ft | 200 kts | 285° |
| 2026-04-22 01:03 | 19.72353 | -154.99051 | 2779 ft | 182 kts | 286° |
| 2026-04-22 01:04 | 19.72787 | -155.00232 | 2523 ft | 160 kts | 294° |
| 2026-04-22 01:04 | 19.73243 | -155.01311 | 2361 ft | 164 kts | 294° |
| 2026-04-22 01:04 | 19.73713 | -155.02434 | 2233 ft | 170 kts | 293° |
| 2026-04-22 01:04 | 19.74185 | -155.03563 | 2057 ft | 164 kts | 295° |
| 2026-04-22 01:05 | 19.74657 | -155.04700 | 1540 ft | 176 kts | 290° |
| 2026-04-22 01:05 | 19.74946 | -155.05943 | 1392 ft | 159 kts | 280° |
| 2026-04-22 01:05 | 19.75258 | -155.07033 | 1225 ft | 163 kts | 290° |
| 2026-04-22 01:05 | 19.75252 | -155.08153 | 1175 ft | 161 kts | 240° |
| 2026-04-22 01:06 | 19.74455 | -155.08926 | 1600 ft | 145 kts | 198° |
| 2026-04-22 01:06 | 19.73459 | -155.09094 | 1104 ft | 144 kts | 174° |
| 2026-04-22 01:06 | 19.72571 | -155.08873 | 859 ft | 128 kts | 146° |
| 2026-04-22 01:06 | 19.72107 | -155.08093 | 699 ft | 128 kts | 102° |
| 2026-04-22 01:07 | 19.72005 | -155.07187 | 430 ft | 123 kts | 84° |
| 2026-04-22 01:07 | 19.72137 | -155.06329 | 239 ft | 118 kts | 91° |
| 2026-04-22 01:07 | 19.72137 | -155.05501 | 74 ft | 114 kts | 91° |
| 2026-04-22 01:07 | 19.72125 | -155.04637 | 394 ft | 105 kts | 91° |
| 2026-04-22 01:08 | 19.72113 | -155.03830 | 456 ft | 120 kts | 87° |
| 2026-04-22 01:08 | 19.72597 | -155.03214 | 805 ft | 124 kts | 12° |
| 2026-04-22 01:08 | 19.73309 | -155.03738 | 906 ft | 148 kts | 270° |
| 2026-04-22 01:08 | 19.73370 | -155.04765 | 674 ft | 145 kts | 277° |
| 2026-04-22 01:09 | 19.73518 | -155.05908 | 535 ft | 150 kts | 264° |
| 2026-04-22 01:09 | 19.72911 | -155.06595 | 527 ft | 157 kts | 165° |
| 2026-04-22 01:09 | 19.72217 | -155.05962 | 278 ft | 139 kts | 113° |
| 2026-04-22 01:09 | 19.72142 | -155.05020 | 71 ft | 117 kts | 96° |
| 2026-04-22 01:10 | 19.72140 | -155.04381 | 68 ft | 64 kts | 92° |
| 2026-04-22 01:10 | 19.72143 | -155.04015 | 66 ft | 39 kts | 91° |
| 2026-04-22 01:10 | 19.72139 | -155.03780 | 66 ft | 26 kts | 91° |
| 2026-04-22 01:10 | 19.72139 | -155.03615 | 65 ft | 17 kts | 90° |
| 2026-04-22 01:11 | 19.72140 | -155.03517 | 64 ft | 11 kts | 89° |
| 2026-04-22 01:11 | 19.72141 | -155.03430 | 64 ft | 17 kts | 90° |
| 2026-04-22 01:11 | 19.72141 | -155.03304 | 64 ft | 15 kts | 90° |
| 2026-04-22 01:11 | 19.72141 | -155.03212 | 63 ft | 10 kts | 90° |
| 2026-04-22 01:12 | 19.72141 | -155.03134 | 63 ft | 12 kts | 90° |
| 2026-04-22 01:12 | 19.72141 | -155.03058 | 63 ft | 8 kts | 90° |
| 2026-04-22 01:12 | 19.72141 | -155.03006 | 62 ft | 5 kts | 90° |
| 2026-04-22 01:12 | 19.72116 | -155.02962 | 62 ft | 9 kts | 147° |
| 2026-04-22 01:13 | 19.72053 | -155.02946 | 62 ft | 9 kts | 180° |
| 2026-04-22 01:13 | 19.72018 | -155.02991 | 62 ft | 8 kts | 255° |
| 2026-04-22 01:13 | 19.72015 | -155.03098 | 63 ft | 23 kts | 270° |
| 2026-04-22 01:13 | 19.72016 | -155.03267 | 64 ft | 22 kts | 270° |
| 2026-04-22 01:14 | 19.72012 | -155.03424 | 64 ft | 20 kts | 270° |
| 2026-04-22 01:14 | 19.72014 | -155.03560 | 65 ft | 15 kts | 272° |
| 2026-04-22 01:14 | 19.72002 | -155.03656 | 65 ft | 12 kts | 215° |
| 2026-04-22 01:14 | 19.71879 | -155.03674 | 66 ft | 19 kts | 181° |
| 2026-04-22 01:15 | 19.71757 | -155.03676 | 66 ft | 16 kts | 179° |
| 2026-04-22 01:15 | 19.71675 | -155.03677 | 66 ft | 10 kts | 201° |
| 2026-04-22 01:15 | 19.71647 | -155.03748 | 66 ft | 11 kts | 263° |
| 2026-04-22 01:15 | 19.71648 | -155.03832 | 66 ft | 11 kts | 268° |
| 2026-04-22 01:16 | 19.71646 | -155.03900 | 67 ft | 3 kts | 259° |
| 2026-04-22 01:16 | 19.71620 | -155.03909 | 67 ft | 4 kts | 184° |
| 2026-04-22 01:16 | 19.71588 | -155.03909 | 67 ft | 4 kts | 179° |
| 2026-04-22 01:16 | 19.71555 | -155.03909 | 67 ft | 4 kts | 180° |
| 2026-04-22 01:17 | 19.71549 | -155.03909 | 67 ft | 0 kts | 179° |